Hlavní strana
METAR-TAF:

METAR-TAF

Letiště :

Mezinárodní letiště Taba

Taba, Egypt

zeměpisná šířka: 29-35-57N, zeměpisná délka: 034-46-36E, výška: 749 m

METAR: chybějící

Čas: 14:26 (12:26 UTC)

Předpověď počasí

Zpráva byla vytvořena před 1 hodinou a 26 minutami, v 11:00 UTC
Předpověď platná od 26 v 12 UTC do 27 v 18 UTC
Severní vítr 13 kt
Viditelnost 10 km a více
Žádná oblačnost pod 1500 m, nevyskytují se cumulonimby.

TAF: HETB 261100Z 2612/2718 01013KT CAVOK

Stav a předpovědi počasí z více než 4 000 letišť (zprávy METAR a TAF).

Červené a žluté tečky na mapě představují dostupné meteorologické stanice.

Když kurzor umístíte na tečku, zobrazí se název stanice.

Pak kliknutím zobrazíte stav a předpověď počasí.

Chcete-li změnit mapu, kliknutím na zelené tlačítko se znaménkem +mapu přiblížíte, kliknutím na zelené tlačítko se znaménkem – mapu oddálíte a kliknutím na zelené šipky přejdete na sousední mapy.


METAR-TAF: